首页
METAR-TAF:

METAR-TAF

机场 :

Brainerd, 明尼蘇達州, 美国

纬度: 46-24-17N, 经度: 094-07-51W, 海拔: 373米

当前天气观测

该预报发布于1小时和15分钟前的19:53 UTC
风速3节,风向多变
温度 26°C
湿度 34%
气压 1018 hPa
能見度: 16.1公里
天空无云

METAR: KBRD 141953Z AUTO VRB03KT 10SM CLR 26/09 A3007 RMK AO2 SLP179 T02560094

时间: 16:08 (21:08 UTC)

预报

该预报发布于3小时和32分钟前的17:36 UTC
预报有效从14日的 18点(UTC)到 15日的 18点(UTC)
风速4节,风向多变
能見度: 10公里
散云层高于4500英尺
从 15日的 0600点(UTC)
风速3节,风向多变
能見度: 10公里
多云层高于12000英尺
从 15日的 1500点(UTC)
风速10节,风向,有时为17节阵风
能見度: 10公里
多云层高于8000英尺
附近有阵雨,

TAF: KBRD 141736Z 1418/1518 VRB04KT P6SM SCT045 FM150600 VRB03KT P6SM BKN120 FM151500 17010G17KT P6SM VCSH BKN080

超过4000个机场的气象观测和天气预报(METAR&TAF报告)。

可查询的气象台以黄色和红色小点在地图上表示。

将鼠标移到小点上方,可查看气象台名称。

然后点击查看天气观测和预报。

如需切换地图:点击带黑十字的绿色按钮放大地图;点击带横线的绿色按钮缩小地图;或者点击绿色箭头查看邻近地区的地图。


METAR-TAF: